createdAt,value
2023-02-01T00:01:12.563Z,6.40
2023-02-01T00:03:43.689Z,5.80
2023-02-01T00:06:14.487Z,6.00
2023-02-01T00:08:45.352Z,5.50
2023-02-01T00:11:16.355Z,5.70
2023-02-01T00:13:47.136Z,6.60
2023-02-01T00:16:20.547Z,5.90
2023-02-01T00:18:53.695Z,6.40
2023-02-01T00:21:24.897Z,5.50
2023-02-01T00:23:55.663Z,6.50
2023-02-01T00:26:33.798Z,5.60
2023-02-01T00:29:07.720Z,6.10
2023-02-01T00:31:38.764Z,5.10
2023-02-01T00:34:11.038Z,5.70
2023-02-01T00:36:42.236Z,5.00
2023-02-01T00:39:13.584Z,4.50
2023-02-01T00:41:44.649Z,4.80
2023-02-01T00:44:15.725Z,4.30
2023-02-01T00:46:46.839Z,4.00
2023-02-01T00:49:18.665Z,4.20
2023-02-01T00:51:49.657Z,3.10
2023-02-01T00:54:20.918Z,3.30
2023-02-01T00:56:51.909Z,3.60
2023-02-01T00:59:23.081Z,2.90
2023-02-01T01:01:54.410Z,3.00
2023-02-01T01:04:26.212Z,3.50
2023-02-01T01:06:57.470Z,3.30
2023-02-01T01:09:28.496Z,2.60
2023-02-01T01:12:03.639Z,2.90
2023-02-01T01:14:36.045Z,2.60
2023-02-01T01:17:07.058Z,2.90
2023-02-01T01:19:41.481Z,2.80
2023-02-01T01:22:12.522Z,2.30
2023-02-01T01:24:43.660Z,2.40
2023-02-01T01:27:15.178Z,3.00
2023-02-01T01:29:46.089Z,2.10
2023-02-01T01:32:19.126Z,2.00
2023-02-01T01:34:50.551Z,1.90
2023-02-01T01:37:21.741Z,2.00
2023-02-01T01:39:52.783Z,1.80
2023-02-01T01:42:23.770Z,1.80
2023-02-01T01:45:04.863Z,2.20
2023-02-01T01:47:42.453Z,1.90
2023-02-01T01:50:18.876Z,2.40
2023-02-01T01:52:51.955Z,2.30
2023-02-01T01:55:25.132Z,2.20
2023-02-01T01:58:01.777Z,2.70
2023-02-01T02:00:33.205Z,2.60
2023-02-01T02:03:08.914Z,2.70
2023-02-01T02:05:40.997Z,2.20
2023-02-01T02:08:13.994Z,2.10
2023-02-01T02:11:03.664Z,2.50
2023-02-01T02:13:42.791Z,3.10
2023-02-01T02:16:28.536Z,2.70
2023-02-01T02:19:21.442Z,2.70
2023-02-01T02:22:08.149Z,2.80
2023-02-01T02:25:06.118Z,3.00
2023-02-01T02:27:49.048Z,2.90
2023-02-01T02:30:51.027Z,2.70
2023-02-01T02:39:05.491Z,3.10
2023-02-01T02:42:00.939Z,3.00
2023-02-01T02:44:55.417Z,2.80
2023-02-01T02:47:35.891Z,3.40
2023-02-01T02:50:35.787Z,3.40
2023-02-01T02:53:29.351Z,3.20
2023-02-01T02:56:19.870Z,2.90
2023-02-01T02:59:10.266Z,3.00
2023-02-01T03:01:59.741Z,3.00
2023-02-01T03:04:30.760Z,3.50
2023-02-01T03:07:17.077Z,3.00
2023-02-01T03:09:51.097Z,3.10
2023-02-01T03:12:41.393Z,3.10
2023-02-01T03:15:17.453Z,3.10
2023-02-01T03:17:49.687Z,3.30
2023-02-01T03:20:23.260Z,3.20
2023-02-01T03:22:56.117Z,2.60
2023-02-01T03:25:33.326Z,3.30
2023-02-01T03:28:08.090Z,3.50
2023-02-01T03:30:43.211Z,3.30
2023-02-01T03:33:25.988Z,2.70
2023-02-01T03:36:08.977Z,3.90
2023-02-01T03:38:46.157Z,3.20
2023-02-01T03:41:26.422Z,3.40
2023-02-01T03:44:04.049Z,3.20
2023-02-01T03:46:38.595Z,3.80
2023-02-01T03:49:14.668Z,3.20
2023-02-01T03:51:45.658Z,2.30
2023-02-01T03:54:20.347Z,3.10
2023-02-01T03:56:52.999Z,3.00
2023-02-01T03:59:25.165Z,3.00
2023-02-01T04:01:56.398Z,2.90
2023-02-01T04:04:27.418Z,3.50
2023-02-01T04:06:58.695Z,3.80
2023-02-01T04:09:32.816Z,2.70
2023-02-01T04:12:03.745Z,2.90
2023-02-01T04:14:34.787Z,3.70
2023-02-01T04:17:05.714Z,2.70
2023-02-01T04:19:36.773Z,2.90
2023-02-01T04:22:07.813Z,3.50
2023-02-01T04:24:38.758Z,3.30
2023-02-01T04:27:10.004Z,3.10
2023-02-01T04:29:41.047Z,2.70
2023-02-01T04:32:12.076Z,3.40
2023-02-01T04:34:43.143Z,4.20
2023-02-01T04:37:14.174Z,3.50
2023-02-01T04:39:45.213Z,3.60
2023-02-01T04:42:16.359Z,2.70
2023-02-01T04:44:47.262Z,3.10
2023-02-01T04:47:19.579Z,2.80
2023-02-01T04:49:50.923Z,3.20
2023-02-01T04:52:21.970Z,3.00
2023-02-01T04:54:56.265Z,3.20
2023-02-01T04:57:28.089Z,3.20
2023-02-01T04:59:58.983Z,3.10
2023-02-01T05:02:30.242Z,4.50
2023-02-01T05:05:01.503Z,2.50
2023-02-01T05:07:32.638Z,4.00
2023-02-01T05:10:03.608Z,3.50
2023-02-01T05:12:52.529Z,2.80
2023-02-01T05:15:23.570Z,2.70
2023-02-01T05:17:54.516Z,3.10
2023-02-01T05:20:25.553Z,4.20
2023-02-01T05:22:56.632Z,2.70
2023-02-01T05:25:27.632Z,3.80
2023-02-01T05:27:58.643Z,3.50
2023-02-01T05:30:29.563Z,3.20
2023-02-01T05:33:00.577Z,3.20
2023-02-01T05:35:31.914Z,3.20
2023-02-01T05:38:02.837Z,3.40
2023-02-01T05:40:33.796Z,3.40
2023-02-01T05:43:04.757Z,3.50
2023-02-01T05:45:37.825Z,3.50
2023-02-01T05:48:09.198Z,3.00
2023-02-01T05:50:40.382Z,3.20
2023-02-01T05:53:14.035Z,3.50
2023-02-01T05:55:45.287Z,3.90
2023-02-01T05:58:16.255Z,3.60
2023-02-01T06:00:47.277Z,3.00
2023-02-01T06:03:18.314Z,2.80
2023-02-01T06:05:49.858Z,3.00
2023-02-01T06:08:20.902Z,2.90
2023-02-01T06:10:51.841Z,3.30
2023-02-01T06:13:23.657Z,3.80
2023-02-01T06:15:55.023Z,3.50
2023-02-01T06:18:26.703Z,2.80
2023-02-01T06:21:01.256Z,3.10
2023-02-01T06:23:33.220Z,3.80
2023-02-01T06:26:06.062Z,3.00
2023-02-01T06:28:39.860Z,3.60
2023-02-01T06:31:11.274Z,3.50
2023-02-01T06:33:43.040Z,3.70
2023-02-01T06:36:16.479Z,3.20
2023-02-01T06:38:47.536Z,3.00
2023-02-01T06:41:18.964Z,3.50
2023-02-01T06:43:50.043Z,2.70
2023-02-01T06:46:21.144Z,3.10
2023-02-01T06:48:52.180Z,3.00
2023-02-01T06:51:29.043Z,4.10
2023-02-01T06:54:00.486Z,3.70
2023-02-01T06:56:33.281Z,2.80
2023-02-01T06:59:07.873Z,2.70
2023-02-01T07:01:39.086Z,3.90
2023-02-01T07:04:11.989Z,3.50
2023-02-01T07:06:42.982Z,4.00
2023-02-01T07:09:14.908Z,5.30
2023-02-01T07:11:45.978Z,3.50
2023-02-01T07:14:17.239Z,3.90
2023-02-01T07:16:48.344Z,3.10
2023-02-01T07:19:19.487Z,3.60
2023-02-01T07:21:50.456Z,2.80
2023-02-01T07:24:21.392Z,3.90
2023-02-01T07:26:53.203Z,4.00
2023-02-01T07:29:24.106Z,3.30
2023-02-01T07:31:55.145Z,3.80
2023-02-01T07:34:26.091Z,3.70
2023-02-01T07:36:57.119Z,3.40
2023-02-01T07:39:29.555Z,3.80
2023-02-01T07:42:00.508Z,3.40
2023-02-01T07:44:31.391Z,3.80
2023-02-01T07:47:02.337Z,3.40
2023-02-01T07:49:33.246Z,4.10
2023-02-01T07:52:04.395Z,4.50
2023-02-01T07:54:35.385Z,4.00
2023-02-01T07:57:06.339Z,3.20
2023-02-01T07:59:57.342Z,3.40
2023-02-01T08:02:28.322Z,4.10
2023-02-01T08:04:59.730Z,4.50
2023-02-01T08:07:30.666Z,3.70
2023-02-01T08:10:02.223Z,4.80
2023-02-01T08:12:33.867Z,4.30
2023-02-01T08:15:05.184Z,4.30
2023-02-01T08:17:36.106Z,3.50
2023-02-01T08:20:08.437Z,3.20
2023-02-01T08:22:39.412Z,4.20
2023-02-01T08:25:12.684Z,3.80
2023-02-01T08:27:43.717Z,4.50
2023-02-01T08:30:18.849Z,3.40
2023-02-01T08:32:50.198Z,4.20
2023-02-01T08:35:23.644Z,3.70
2023-02-01T08:37:54.846Z,3.90
2023-02-01T08:40:25.955Z,5.70
2023-02-01T08:42:57.141Z,3.60
2023-02-01T08:45:31.002Z,3.50
2023-02-01T08:48:02.235Z,4.30
2023-02-01T08:50:34.359Z,3.50
2023-02-01T08:53:05.253Z,3.90
2023-02-01T08:55:36.381Z,4.00
2023-02-01T08:58:07.404Z,3.70
2023-02-01T09:00:38.601Z,4.30
2023-02-01T09:03:12.066Z,5.20
2023-02-01T09:05:49.493Z,3.90
2023-02-01T09:08:21.407Z,4.50
2023-02-01T09:10:52.349Z,3.80
2023-02-01T09:13:30.421Z,4.20
2023-02-01T09:16:02.335Z,4.00
2023-02-01T09:18:50.812Z,4.10
2023-02-01T09:21:33.059Z,3.90
2023-02-01T09:24:05.213Z,3.30
2023-02-01T09:26:36.682Z,3.90
2023-02-01T09:29:12.345Z,4.40
2023-02-01T09:31:49.915Z,3.90
2023-02-01T09:34:28.528Z,3.20
2023-02-01T09:36:59.517Z,3.90
2023-02-01T09:39:32.270Z,4.70
2023-02-01T09:42:16.497Z,3.20
2023-02-01T09:45:09.482Z,3.70
2023-02-01T09:47:49.487Z,4.60
2023-02-01T09:50:24.130Z,4.50
2023-02-01T09:53:00.698Z,4.00
2023-02-01T09:55:39.128Z,4.60
2023-02-01T09:58:15.092Z,4.30
2023-02-01T10:00:53.103Z,4.50
2023-02-01T10:03:26.032Z,4.20
2023-02-01T10:06:16.268Z,4.80
2023-02-01T10:09:09.182Z,4.10
2023-02-01T10:11:52.196Z,4.50
2023-02-01T10:14:44.051Z,4.20
2023-02-01T10:17:26.691Z,3.50
2023-02-01T10:20:11.001Z,4.30
2023-02-01T10:25:44.304Z,4.10
2023-02-01T10:28:19.703Z,4.30
2023-02-01T10:30:51.339Z,3.90
2023-02-01T10:33:27.307Z,3.70
2023-02-01T10:36:05.552Z,3.70
2023-02-01T10:38:36.889Z,4.00
2023-02-01T10:41:19.390Z,3.30
2023-02-01T10:43:57.298Z,4.50
2023-02-01T10:46:28.739Z,4.60
2023-02-01T10:49:02.620Z,4.00
2023-02-01T10:51:46.197Z,4.80
2023-02-01T10:54:21.694Z,4.00
2023-02-01T10:56:54.504Z,3.90
2023-02-01T10:59:30.421Z,4.90
2023-02-01T11:02:17.369Z,4.00
2023-02-01T11:04:48.916Z,4.20
2023-02-01T11:07:26.724Z,5.30
2023-02-01T11:09:59.100Z,4.70
2023-02-01T11:12:33.415Z,4.70
2023-02-01T11:15:16.239Z,4.80
2023-02-01T11:17:49.621Z,4.80
2023-02-01T11:20:29.080Z,4.80
2023-02-01T11:23:00.734Z,4.00
2023-02-01T11:25:33.611Z,4.30
2023-02-01T11:28:05.668Z,5.00
2023-02-01T11:30:41.454Z,4.50
2023-02-01T11:33:16.063Z,3.90
2023-02-01T11:35:49.351Z,3.70
2023-02-01T11:38:28.785Z,4.00
2023-02-01T11:41:15.860Z,3.40
2023-02-01T11:44:01.585Z,4.50
2023-02-01T11:46:35.170Z,4.50
2023-02-01T11:49:22.329Z,4.30
2023-02-01T11:52:07.087Z,3.90
2023-02-01T11:54:54.921Z,4.10
2023-02-01T11:57:49.514Z,4.60
2023-02-01T12:00:43.445Z,4.40
2023-02-01T12:03:34.628Z,4.60
2023-02-01T12:06:11.060Z,4.90
2023-02-01T12:09:01.725Z,4.70
2023-02-01T12:11:44.746Z,4.40
2023-02-01T12:14:39.083Z,4.60
2023-02-01T12:17:41.313Z,4.40
2023-02-01T12:20:24.996Z,5.10
2023-02-01T12:23:09.516Z,4.50
2023-02-01T12:25:58.258Z,5.30
2023-02-01T12:28:58.498Z,5.20
2023-02-01T12:31:45.133Z,4.40
2023-02-01T12:34:37.107Z,5.60
2023-02-01T12:37:20.520Z,5.30
2023-02-01T12:39:58.810Z,5.30
2023-02-01T12:42:33.821Z,5.00
2023-02-01T12:45:14.028Z,4.80
2023-02-01T12:47:49.690Z,4.80
2023-02-01T12:50:26.797Z,5.00
2023-02-01T12:53:12.331Z,6.20
2023-02-01T12:55:51.749Z,5.00
2023-02-01T12:58:29.707Z,6.10
2023-02-01T13:01:05.866Z,6.30
2023-02-01T13:03:43.964Z,8.60
2023-02-01T13:06:20.814Z,6.90
2023-02-01T13:08:59.010Z,6.80
2023-02-01T13:11:33.312Z,5.60
2023-02-01T13:14:10.028Z,5.40
2023-02-01T13:16:45.044Z,5.40
2023-02-01T13:19:22.520Z,5.50
2023-02-01T13:21:59.919Z,5.40
2023-02-01T13:24:39.217Z,5.30
2023-02-01T13:27:14.724Z,6.50
2023-02-01T13:29:53.130Z,5.40
2023-02-01T13:33:51.264Z,6.20
2023-02-01T13:35:53.429Z,5.30
2023-02-01T13:38:47.170Z,4.50
2023-02-01T13:41:30.020Z,4.80
2023-02-01T13:44:06.737Z,4.40
2023-02-01T13:46:44.531Z,4.50
2023-02-01T13:49:24.856Z,5.20
2023-02-01T13:51:58.552Z,4.20
2023-02-01T13:54:36.192Z,4.70
2023-02-01T13:57:17.347Z,4.30
2023-02-01T14:00:08.172Z,4.00
2023-02-01T14:03:24.061Z,4.10
2023-02-01T14:06:05.723Z,5.40
2023-02-01T14:08:44.642Z,4.10
2023-02-01T14:11:52.504Z,4.30
2023-02-01T14:14:46.240Z,4.50
2023-02-01T14:17:43.287Z,4.90
2023-02-01T14:20:46.708Z,4.20
2023-02-01T14:23:22.356Z,4.80
2023-02-01T14:26:15.294Z,4.80
2023-02-01T14:29:22.259Z,4.30
2023-02-01T14:32:03.596Z,3.80
2023-02-01T14:34:56.000Z,4.60
2023-02-01T14:37:33.894Z,4.40
2023-02-01T14:40:06.562Z,4.70
2023-02-01T14:42:46.323Z,4.60
2023-02-01T14:45:52.784Z,3.70
2023-02-01T14:48:45.333Z,4.30
2023-02-01T14:51:19.831Z,4.60
2023-02-01T14:53:52.225Z,3.50
2023-02-01T14:56:23.751Z,3.40
2023-02-01T14:58:59.663Z,4.30
2023-02-01T15:01:32.961Z,3.70
2023-02-01T15:04:12.385Z,4.40
2023-02-01T15:06:48.646Z,4.00
2023-02-01T15:09:23.904Z,4.50
2023-02-01T15:14:35.865Z,3.90
2023-02-01T15:17:20.322Z,4.30
2023-02-01T15:19:59.120Z,3.70
2023-02-01T15:22:31.767Z,4.50
2023-02-01T15:25:04.334Z,4.40
2023-02-01T15:27:35.952Z,4.30
2023-02-01T15:30:18.604Z,3.80
2023-02-01T15:32:50.511Z,4.40
2023-02-01T15:35:44.617Z,5.00
2023-02-01T15:38:41.472Z,3.80
2023-02-01T15:41:16.246Z,4.10
2023-02-01T15:44:04.987Z,4.30
2023-02-01T15:46:38.804Z,5.10
2023-02-01T15:49:22.968Z,5.10
2023-02-01T15:51:55.863Z,4.80
2023-02-01T15:54:32.123Z,5.40
2023-02-01T15:57:06.384Z,6.20
2023-02-01T15:59:45.122Z,5.80
2023-02-01T16:02:33.267Z,4.70
2023-02-01T16:05:05.601Z,4.40
2023-02-01T16:07:38.162Z,4.90
2023-02-01T16:10:26.944Z,4.00
2023-02-01T16:13:01.221Z,5.00
2023-02-01T16:15:33.108Z,4.80
2023-02-01T16:18:04.088Z,6.30
2023-02-01T16:20:36.379Z,5.60
2023-02-01T16:23:07.698Z,5.70
2023-02-01T16:25:39.805Z,6.00
2023-02-01T16:28:12.945Z,5.70
2023-02-01T16:30:43.987Z,5.20
2023-02-01T16:33:23.180Z,5.00
2023-02-01T16:35:58.583Z,5.80
2023-02-01T16:38:30.388Z,6.10
2023-02-01T16:41:03.507Z,5.60
2023-02-01T16:43:34.478Z,5.80
2023-02-01T16:46:05.729Z,6.00
2023-02-01T16:48:38.375Z,6.50
2023-02-01T16:51:14.843Z,6.00
2023-02-01T16:53:54.315Z,5.80
2023-02-01T16:56:33.656Z,5.30
2023-02-01T16:59:05.231Z,5.80
2023-02-01T17:01:37.717Z,5.60
2023-02-01T17:04:08.944Z,4.90
2023-02-01T17:06:40.913Z,6.30
2023-02-01T17:09:12.534Z,6.90
2023-02-01T17:11:43.563Z,6.40
2023-02-01T17:14:20.469Z,6.10
2023-02-01T17:16:55.802Z,6.20
2023-02-01T17:19:26.961Z,5.80
2023-02-01T17:21:59.942Z,6.30
2023-02-01T17:24:47.594Z,7.10
2023-02-01T17:27:20.095Z,5.60
2023-02-01T17:29:51.921Z,6.10
2023-02-01T17:32:32.169Z,6.90
2023-02-01T17:35:05.870Z,6.10
2023-02-01T17:37:43.998Z,6.40
2023-02-01T17:40:26.250Z,6.20
2023-02-01T17:43:04.338Z,5.90
2023-02-01T17:45:40.804Z,5.90
2023-02-01T17:48:12.414Z,4.80
2023-02-01T17:50:44.118Z,5.90
2023-02-01T17:53:17.152Z,6.60
2023-02-01T17:55:48.877Z,6.30
2023-02-01T17:58:21.336Z,6.40
2023-02-01T18:00:52.948Z,6.00
2023-02-01T18:03:31.866Z,6.00
2023-02-01T18:06:03.320Z,6.00
2023-02-01T18:08:34.555Z,7.10
2023-02-01T18:11:07.738Z,6.20
2023-02-01T18:13:38.986Z,5.70
2023-02-01T18:16:21.019Z,7.90
2023-02-01T18:18:52.529Z,7.10
2023-02-01T18:21:27.020Z,6.50
2023-02-01T18:24:00.118Z,6.90
2023-02-01T18:26:31.970Z,6.40
2023-02-01T18:29:03.186Z,5.90
2023-02-01T18:31:35.968Z,5.80
2023-02-01T18:34:06.994Z,5.40
2023-02-01T18:36:38.631Z,5.80
2023-02-01T18:39:11.827Z,5.70
2023-02-01T18:41:45.535Z,5.50
2023-02-01T18:44:18.060Z,5.40
2023-02-01T18:46:49.439Z,5.40
2023-02-01T18:49:21.460Z,6.30
2023-02-01T18:51:56.609Z,5.90
2023-02-01T18:54:28.389Z,6.30
2023-02-01T18:56:59.716Z,6.20
2023-02-01T18:59:31.000Z,6.30
2023-02-01T19:02:04.220Z,5.90
2023-02-01T19:04:35.760Z,6.50
2023-02-01T19:07:06.869Z,5.20
2023-02-01T19:09:37.941Z,5.50
2023-02-01T19:12:12.531Z,5.30
2023-02-01T19:14:44.403Z,5.80
2023-02-01T19:17:15.431Z,7.80
2023-02-01T19:19:48.131Z,6.50
2023-02-01T19:22:19.317Z,7.40
2023-02-01T19:24:52.419Z,6.70
2023-02-01T19:27:24.561Z,6.40
2023-02-01T19:29:56.086Z,5.70
2023-02-01T19:32:27.190Z,5.20
2023-02-01T19:34:58.674Z,6.00
2023-02-01T19:37:29.870Z,6.30
2023-02-01T19:40:01.401Z,6.10
2023-02-01T19:42:33.150Z,6.20
2023-02-01T19:45:04.835Z,5.90
2023-02-01T19:47:36.183Z,5.50
2023-02-01T19:50:08.862Z,5.60
2023-02-01T19:52:41.753Z,6.10
2023-02-01T19:55:13.562Z,5.60
2023-02-01T19:57:45.134Z,5.30
2023-02-01T20:00:16.483Z,7.30
2023-02-01T20:02:47.826Z,7.30
2023-02-01T20:05:19.225Z,6.00
2023-02-01T20:07:50.501Z,6.80
2023-02-01T20:10:21.845Z,6.90
2023-02-01T20:12:55.175Z,6.60
2023-02-01T20:15:27.705Z,6.10
2023-02-01T20:17:59.396Z,6.60
2023-02-01T20:20:30.982Z,6.50
2023-02-01T20:23:03.072Z,8.60
2023-02-01T20:25:37.410Z,7.00
2023-02-01T20:28:09.064Z,6.00
2023-02-01T20:30:40.337Z,6.30
2023-02-01T20:33:12.366Z,6.50
2023-02-01T20:35:47.809Z,5.60
2023-02-01T20:38:18.979Z,6.40
2023-02-01T20:40:50.204Z,5.70
2023-02-01T20:43:21.279Z,6.60
2023-02-01T20:45:52.889Z,6.40
2023-02-01T20:48:24.178Z,8.10
2023-02-01T20:50:58.002Z,6.80
2023-02-01T20:53:29.659Z,6.20
2023-02-01T20:56:01.201Z,7.70
2023-02-01T20:58:33.235Z,6.10
2023-02-01T21:01:04.758Z,6.40
2023-02-01T21:03:37.765Z,6.20
2023-02-01T21:06:11.058Z,6.60
2023-02-01T21:08:42.625Z,7.50
2023-02-01T21:11:16.026Z,7.10
2023-02-01T21:13:51.665Z,7.40
2023-02-01T21:16:24.812Z,6.70
2023-02-01T21:18:55.873Z,6.70
2023-02-01T21:21:27.016Z,6.00
2023-02-01T21:24:03.660Z,6.00
2023-02-01T21:26:41.205Z,6.30
2023-02-01T21:29:13.945Z,6.40
2023-02-01T21:31:45.726Z,6.30
2023-02-01T21:34:17.514Z,5.90
2023-02-01T21:36:48.653Z,7.20
2023-02-01T21:39:19.838Z,6.60
2023-02-01T21:42:08.667Z,6.60
2023-02-01T21:44:39.801Z,6.50
2023-02-01T21:47:11.915Z,5.40
2023-02-01T21:49:43.654Z,5.90
2023-02-01T21:52:17.682Z,6.20
2023-02-01T21:54:49.435Z,5.90
2023-02-01T21:57:21.061Z,8.00
2023-02-01T21:59:52.248Z,7.40
2023-02-01T22:02:23.786Z,6.60
2023-02-01T22:04:55.063Z,6.20
2023-02-01T22:07:26.370Z,6.70
2023-02-01T22:09:57.527Z,5.80
2023-02-01T22:12:28.711Z,7.10
2023-02-01T22:14:59.842Z,5.40
2023-02-01T22:17:31.799Z,5.90
2023-02-01T22:20:02.937Z,6.80
2023-02-01T22:22:34.404Z,7.40
2023-02-01T22:25:06.715Z,7.00
2023-02-01T22:28:30.344Z,6.70
2023-02-01T22:30:30.416Z,6.80
2023-02-01T22:33:01.340Z,6.70
2023-02-01T22:35:32.254Z,6.40
2023-02-01T22:38:03.276Z,6.50
2023-02-01T22:40:34.683Z,5.60
2023-02-01T22:43:06.285Z,5.70
2023-02-01T22:45:39.150Z,6.30
2023-02-01T22:48:10.245Z,7.80
2023-02-01T22:50:41.137Z,6.80
2023-02-01T22:53:12.501Z,6.20
2023-02-01T22:55:45.591Z,5.30
2023-02-01T22:58:16.523Z,6.50
2023-02-01T23:00:47.762Z,6.30
2023-02-01T23:03:18.817Z,6.50
2023-02-01T23:05:49.811Z,6.30
2023-02-01T23:08:20.817Z,6.00
2023-02-01T23:10:51.715Z,5.80
2023-02-01T23:13:22.706Z,6.00
2023-02-01T23:15:53.617Z,5.40
2023-02-01T23:18:24.562Z,5.10
2023-02-01T23:20:55.441Z,5.80
2023-02-01T23:23:26.953Z,5.60
2023-02-01T23:25:58.144Z,5.40
2023-02-01T23:28:29.585Z,6.60
2023-02-01T23:31:00.950Z,7.10
2023-02-01T23:33:31.871Z,5.60
2023-02-01T23:36:04.780Z,7.30
2023-02-01T23:38:36.439Z,5.60
2023-02-01T23:41:08.701Z,6.00
2023-02-01T23:43:57.254Z,6.30
2023-02-01T23:46:30.034Z,5.70
2023-02-01T23:49:02.429Z,6.10
2023-02-01T23:51:33.569Z,5.90
2023-02-01T23:54:05.056Z,7.50
2023-02-01T23:56:38.762Z,6.30
2023-02-01T23:59:13.295Z,7.20
